Time;durP1;ratioP1;P1;durP2;ratioP2;P2;SDS_P1;SDS_P2;PMS_P1;PMS_P2;Temp;Humidity;BMP_temperature;BMP_pressure;BME280_temperature;BME280_humidity;BME280_pressure;Samples;Min_cycle;Max_cycle;Signal;HPM_P1;HPM_P2
2021/12/20 00:01:15;;;;;;;6.50;2.27;;;1.10;99.90;;;;;;8308473;28;20274;-85
2021/12/20 00:05:18;;;;;;;5.27;2.07;;;1.10;99.90;;;;;;8301141;28;20268;-83
2021/12/20 00:09:19;;;;;;;8.90;2.57;;;1.10;99.90;;;;;;8316273;28;20194;-82
2021/12/20 00:13:22;;;;;;;7.77;1.90;;;1.10;99.90;;;;;;8299003;28;20276;-81
2021/12/20 00:17:23;;;;;;;8.00;2.43;;;1.00;99.90;;;;;;8310377;28;20234;-82
2021/12/20 00:21:24;;;;;;;6.73;1.87;;;0.90;99.90;;;;;;8307823;28;20191;-83
2021/12/20 00:25:25;;;;;;;3.87;2.10;;;0.80;99.90;;;;;;8317445;28;20190;-82
2021/12/20 00:29:25;;;;;;;6.13;2.00;;;0.60;99.90;;;;;;8307358;28;20194;-81
2021/12/20 00:33:33;;;;;;;7.07;2.43;;;0.50;99.90;;;;;;8326549;28;20201;-84
2021/12/20 00:42:02;;;;;;;8.93;2.20;;;0.50;99.90;;;;;;8324267;28;20205;-81
2021/12/20 00:46:03;;;;;;;3.67;1.80;;;0.40;99.90;;;;;;8293317;28;20253;-81
2021/12/20 00:50:07;;;;;;;7.70;1.80;;;0.30;99.90;;;;;;8303359;28;20195;-84
2021/12/20 00:54:08;;;;;;;6.33;2.40;;;0.20;99.90;;;;;;8306458;28;20214;-81
2021/12/20 00:58:11;;;;;;;4.63;2.13;;;0.20;99.90;;;;;;8325154;28;20278;-83
2021/12/20 01:02:12;;;;;;;6.47;1.67;;;0.10;99.90;;;;;;8304649;28;20183;-81
2021/12/20 01:06:13;;;;;;;8.00;1.97;;;0.10;99.90;;;;;;8328299;28;20202;-82
2021/12/20 01:10:16;;;;;;;6.90;2.13;;;0.00;99.90;;;;;;8310748;28;20206;-80
2021/12/20 01:14:23;;;;;;;5.67;1.97;;;0.00;99.90;;;;;;8301736;28;20221;-84
2021/12/20 01:18:24;;;;;;;7.20;2.47;;;0.00;99.90;;;;;;8323415;28;20190;-82
2021/12/20 01:22:25;;;;;;;8.33;3.20;;;0.00;99.90;;;;;;8321770;28;20186;-82
2021/12/20 01:26:26;;;;;;;9.43;2.57;;;0.00;99.90;;;;;;8312543;28;20187;-83
2021/12/20 01:30:28;;;;;;;6.30;2.00;;;-0.10;99.90;;;;;;8313300;28;20185;-80
2021/12/20 01:34:28;;;;;;;7.97;2.70;;;-0.10;99.90;;;;;;8312491;28;20185;-79
2021/12/20 01:38:29;;;;;;;4.83;2.00;;;-0.20;99.90;;;;;;8311578;28;20260;-82
2021/12/20 01:42:31;;;;;;;6.90;1.67;;;-0.20;99.90;;;;;;8315238;28;20279;-85
2021/12/20 01:46:32;;;;;;;11.17;2.40;;;-0.10;99.90;;;;;;8314646;28;20194;-81
2021/12/20 01:50:50;;;;;;;4.03;1.90;;;-0.10;99.90;;;;;;8311713;28;20200;-81
2021/12/20 01:54:50;;;;;;;8.03;1.77;;;0.00;99.90;;;;;;8309703;28;20283;-83
2021/12/20 01:58:51;;;;;;;4.90;1.83;;;0.10;99.90;;;;;;8313202;28;20185;-81
2021/12/20 02:02:58;;;;;;;4.87;1.40;;;0.00;99.90;;;;;;8318797;28;20182;-84
2021/12/20 02:06:59;;;;;;;7.57;1.80;;;0.00;99.90;;;;;;8307982;28;20185;-85
2021/12/20 02:11:12;;;;;;;1.97;1.17;;;-0.10;99.90;;;;;;8310807;28;20214;-81
2021/12/20 02:15:13;;;;;;;5.43;1.13;;;-0.20;99.90;;;;;;8316370;28;20312;-84
2021/12/20 02:19:17;;;;;;;2.67;1.10;;;-0.30;99.90;;;;;;8328268;28;20185;-85
2021/12/20 02:23:18;;;;;;;6.37;1.50;;;-0.30;99.90;;;;;;8328034;28;20189;-82
2021/12/20 02:27:20;;;;;;;4.73;1.40;;;-0.30;99.90;;;;;;8314028;28;20217;-82
2021/12/20 02:39:46;;;;;;;2.63;1.13;;;-0.50;99.90;;;;;;8327103;28;20196;-83
2021/12/20 02:43:55;;;;;;;2.80;1.30;;;-0.60;99.90;;;;;;8327070;28;20183;-82
2021/12/20 02:47:56;;;;;;;4.77;1.63;;;-0.60;99.90;;;;;;8308169;28;20462;-82
2021/12/20 02:52:08;;;;;;;4.27;1.23;;;-0.50;99.90;;;;;;8306419;28;20197;-84
2021/12/20 02:56:09;;;;;;;3.23;1.10;;;-0.50;99.90;;;;;;8328780;28;20221;-82
2021/12/20 03:00:10;;;;;;;2.87;1.17;;;-0.60;99.90;;;;;;8309757;28;20217;-81
2021/12/20 03:04:12;;;;;;;5.30;1.43;;;-0.60;99.90;;;;;;8335052;28;20221;-81
2021/12/20 03:08:13;;;;;;;3.27;1.43;;;-0.70;99.90;;;;;;8321005;28;20271;-82
2021/12/20 03:12:14;;;;;;;3.43;1.20;;;-0.70;99.90;;;;;;8307626;28;20197;-82
2021/12/20 03:16:15;;;;;;;2.20;1.27;;;-0.70;99.90;;;;;;8312186;28;20274;-82
2021/12/20 03:20:18;;;;;;;5.00;1.20;;;-0.80;99.90;;;;;;8309991;28;20226;-81
2021/12/20 03:24:19;;;;;;;3.93;1.20;;;-0.80;99.90;;;;;;8311820;28;20209;-82
2021/12/20 03:28:20;;;;;;;5.83;1.10;;;-0.90;99.90;;;;;;8315096;28;20224;-83
2021/12/20 03:32:21;;;;;;;3.03;1.30;;;-0.90;99.90;;;;;;8312509;28;20220;-82
2021/12/20 03:36:22;;;;;;;4.97;1.20;;;-1.00;99.90;;;;;;8320489;28;20227;-84
2021/12/20 03:40:23;;;;;;;5.50;0.90;;;-1.00;99.90;;;;;;8311818;28;20326;-84
2021/12/20 03:44:25;;;;;;;3.87;1.20;;;-1.10;99.90;;;;;;8334103;28;20187;-83
2021/12/20 03:48:26;;;;;;;3.37;1.17;;;-1.00;99.90;;;;;;8329769;28;20492;-83
2021/12/20 03:52:27;;;;;;;2.60;1.50;;;-1.00;99.90;;;;;;8310516;28;20251;-85
2021/12/20 03:56:28;;;;;;;5.57;1.23;;;-0.90;99.90;;;;;;8318140;28;20209;-84
2021/12/20 04:00:29;;;;;;;4.07;1.13;;;-0.80;99.90;;;;;;8341138;28;20242;-83
2021/12/20 04:04:30;;;;;;;5.13;1.57;;;-0.70;99.90;;;;;;8316030;28;20185;-83
2021/12/20 04:08:31;;;;;;;2.27;1.30;;;-0.60;99.90;;;;;;8303868;28;20230;-83
2021/12/20 04:12:32;;;;;;;3.77;1.10;;;-0.60;99.90;;;;;;8309418;28;20193;-86
2021/12/20 04:16:36;;;;;;;4.37;1.43;;;-0.50;99.90;;;;;;8308319;28;20295;-82
2021/12/20 04:20:36;;;;;;;1.30;0.90;;;-0.50;99.90;;;;;;8307213;28;20182;-83
2021/12/20 04:24:37;;;;;;;4.33;1.03;;;-0.40;99.90;;;;;;8308513;28;20209;-84
2021/12/20 04:28:39;;;;;;;6.90;1.00;;;-0.40;99.90;;;;;;8303128;28;20175;-85
2021/12/20 04:32:45;;;;;;;4.63;1.17;;;-0.30;99.90;;;;;;8312214;28;20225;-85
2021/12/20 04:36:46;;;;;;;4.03;1.50;;;-0.30;99.90;;;;;;8306179;28;20217;-83
2021/12/20 04:40:46;;;;;;;1.83;1.37;;;-0.30;99.90;;;;;;8308217;28;20298;-82
2021/12/20 04:44:47;;;;;;;4.30;1.20;;;-0.30;99.90;;;;;;8308146;28;20193;-85
2021/12/20 04:48:48;;;;;;;3.80;1.00;;;-0.30;99.90;;;;;;8310444;28;20185;-85
2021/12/20 04:52:49;;;;;;;1.40;1.00;;;-0.30;99.90;;;;;;8304324;28;20474;-84
2021/12/20 04:56:50;;;;;;;3.33;0.90;;;-0.30;99.90;;;;;;8325622;28;20257;-83
2021/12/20 05:00:51;;;;;;;1.63;1.10;;;-0.30;99.90;;;;;;8303975;28;20180;-84
2021/12/20 05:04:52;;;;;;;1.83;1.17;;;-0.20;99.90;;;;;;8307013;28;20190;-83
2021/12/20 05:08:55;;;;;;;4.60;1.20;;;-0.30;99.90;;;;;;8319090;28;20198;-84
2021/12/20 05:13:00;;;;;;;1.37;1.00;;;-0.20;99.90;;;;;;8309437;28;20259;-86
2021/12/20 05:17:01;;;;;;;7.43;1.07;;;-0.20;99.90;;;;;;8329667;28;20212;-84
2021/12/20 05:21:02;;;;;;;2.30;1.20;;;-0.30;99.90;;;;;;8314163;28;20178;-83
2021/12/20 05:25:05;;;;;;;2.03;1.10;;;-0.20;99.90;;;;;;8314311;28;20191;-83
2021/12/20 05:29:07;;;;;;;3.27;1.03;;;-0.20;99.90;;;;;;8313091;28;20262;-84
2021/12/20 05:33:08;;;;;;;4.03;0.90;;;-0.20;99.90;;;;;;8313790;28;20291;-83
2021/12/20 05:37:09;;;;;;;1.13;0.70;;;-0.20;99.90;;;;;;8310104;28;20221;-82
2021/12/20 05:41:10;;;;;;;1.90;1.27;;;-0.30;99.90;;;;;;8322207;28;20179;-83
2021/12/20 05:45:11;;;;;;;4.53;1.20;;;-0.20;99.90;;;;;;8321092;28;20190;-83
2021/12/20 05:49:12;;;;;;;4.23;1.33;;;-0.20;99.90;;;;;;8317257;28;20217;-84
2021/12/20 05:53:13;;;;;;;4.43;1.30;;;-0.20;99.90;;;;;;8329215;28;20229;-86
2021/12/20 05:57:15;;;;;;;3.67;1.40;;;-0.20;99.90;;;;;;8310757;28;20210;-82
2021/12/20 06:01:16;;;;;;;3.23;1.33;;;-0.20;99.90;;;;;;8321531;28;20188;-86
2021/12/20 06:05:18;;;;;;;4.00;1.33;;;-0.10;99.90;;;;;;8311516;28;20265;-86
2021/12/20 06:09:19;;;;;;;1.67;1.00;;;-0.10;99.90;;;;;;8306847;28;20263;-82
2021/12/20 06:13:20;;;;;;;3.40;1.87;;;-0.10;99.90;;;;;;8323958;28;20190;-84
2021/12/20 06:17:24;;;;;;;3.10;1.47;;;-0.10;99.90;;;;;;8320592;28;20263;-84
2021/12/20 06:21:25;;;;;;;4.67;1.20;;;-0.10;99.90;;;;;;8314701;28;20236;-83
2021/12/20 06:25:26;;;;;;;4.53;1.40;;;-0.10;99.90;;;;;;8314141;28;20190;-84
2021/12/20 06:29:27;;;;;;;3.17;1.63;;;-0.10;99.90;;;;;;8316591;28;20191;-86
2021/12/20 06:33:28;;;;;;;5.87;2.60;;;-0.10;99.90;;;;;;8312559;28;20266;-83
2021/12/20 06:37:30;;;;;;;5.37;1.37;;;-0.10;99.90;;;;;;8311560;28;20218;-83
2021/12/20 06:41:31;;;;;;;6.93;2.70;;;-0.10;99.90;;;;;;8315626;28;20210;-82
2021/12/20 06:45:33;;;;;;;4.57;2.07;;;-0.10;99.90;;;;;;8311949;28;20198;-84
2021/12/20 06:49:36;;;;;;;3.17;2.00;;;-0.10;99.90;;;;;;8314454;28;20219;-83
2021/12/20 06:53:37;;;;;;;4.67;1.87;;;-0.10;99.90;;;;;;8310631;28;20232;-86
2021/12/20 06:57:40;;;;;;;5.17;1.33;;;-0.20;99.90;;;;;;8319508;28;20224;-83
2021/12/20 07:01:41;;;;;;;4.33;2.10;;;-0.10;99.90;;;;;;8308738;28;20185;-84
2021/12/20 07:05:42;;;;;;;7.40;2.00;;;-0.10;99.90;;;;;;8313177;28;20286;-82
2021/12/20 07:09:43;;;;;;;3.67;1.83;;;-0.10;99.90;;;;;;8309718;28;20202;-82
2021/12/20 07:13:44;;;;;;;4.73;1.67;;;-0.10;99.90;;;;;;8305773;28;20185;-82
2021/12/20 07:17:45;;;;;;;6.03;1.80;;;-0.20;99.90;;;;;;8303585;28;20225;-82
2021/12/20 07:21:46;;;;;;;5.77;1.83;;;-0.20;99.90;;;;;;8311122;28;20189;-85
2021/12/20 07:25:46;;;;;;;2.20;1.40;;;-0.20;99.90;;;;;;8305914;28;20201;-84
2021/12/20 07:29:47;;;;;;;6.83;2.43;;;-0.20;99.90;;;;;;8305849;28;20188;-84
2021/12/20 07:33:48;;;;;;;3.20;1.80;;;-0.10;99.90;;;;;;8326656;28;20221;-82
2021/12/20 07:37:52;;;;;;;3.03;1.50;;;-0.10;99.90;;;;;;8333896;28;20228;-85
2021/12/20 07:41:54;;;;;;;7.20;1.93;;;-0.10;99.90;;;;;;8321363;28;20197;-84
2021/12/20 07:45:55;;;;;;;8.40;1.70;;;-0.10;99.90;;;;;;8308263;28;20193;-84
2021/12/20 07:49:56;;;;;;;5.17;1.47;;;-0.10;99.90;;;;;;8310162;28;20189;-82
2021/12/20 07:53:56;;;;;;;3.53;1.73;;;0.00;99.90;;;;;;8305226;28;20305;-82
2021/12/20 07:57:59;;;;;;;5.87;1.67;;;0.00;99.90;;;;;;8313815;28;20268;-83
2021/12/20 08:02:00;;;;;;;2.40;1.33;;;0.00;99.90;;;;;;8314990;28;20185;-81
2021/12/20 08:06:05;;;;;;;3.53;1.70;;;0.10;99.90;;;;;;8306238;28;20276;-83
2021/12/20 08:10:06;;;;;;;3.67;1.70;;;0.10;99.90;;;;;;8316536;28;20252;-83
2021/12/20 08:14:07;;;;;;;4.73;1.60;;;0.10;99.90;;;;;;8309348;28;20198;-84
2021/12/20 08:18:08;;;;;;;6.17;2.00;;;0.10;99.90;;;;;;8316982;28;20220;-82
2021/12/20 08:22:09;;;;;;;5.50;1.77;;;0.20;99.90;;;;;;8312020;28;20179;-85
2021/12/20 08:26:11;;;;;;;3.37;1.67;;;0.20;99.90;;;;;;8309114;28;20229;-84
2021/12/20 08:30:12;;;;;;;4.17;1.63;;;0.20;99.90;;;;;;8309886;28;20190;-82
2021/12/20 08:34:13;;;;;;;3.77;2.10;;;0.10;99.90;;;;;;8306139;28;20191;-85
2021/12/20 08:38:15;;;;;;;3.60;1.50;;;0.10;99.90;;;;;;8309487;28;20301;-85
2021/12/20 08:42:16;;;;;;;6.03;2.27;;;0.20;99.90;;;;;;8306728;28;20189;-86
2021/12/20 08:46:18;;;;;;;5.13;2.07;;;0.20;99.90;;;;;;8309435;28;20194;-83
2021/12/20 08:50:21;;;;;;;5.20;2.17;;;0.10;99.90;;;;;;8310236;28;20673;-78
2021/12/20 08:54:27;;;;;;;7.77;2.30;;;0.20;99.90;;;;;;8307869;28;20246;-78
2021/12/20 08:58:28;;;;;;;4.97;2.57;;;0.20;99.90;;;;;;8315558;28;20214;-78
2021/12/20 09:02:29;;;;;;;6.50;2.00;;;0.20;99.90;;;;;;8306965;28;20197;-80
2021/12/20 09:06:31;;;;;;;3.57;2.23;;;0.20;99.90;;;;;;8311701;28;20256;-79
2021/12/20 09:10:33;;;;;;;6.37;2.00;;;0.20;99.90;;;;;;8324043;28;20224;-79
2021/12/20 09:14:34;;;;;;;4.80;2.20;;;0.30;99.90;;;;;;8325202;28;20190;-78
2021/12/20 09:18:35;;;;;;;3.10;1.57;;;0.30;99.90;;;;;;8302443;28;20244;-80
2021/12/20 09:22:48;;;;;;;6.43;2.03;;;0.30;99.90;;;;;;8300106;28;20178;-79
2021/12/20 09:26:49;;;;;;;6.43;2.10;;;0.40;99.90;;;;;;8304704;28;20193;-79
2021/12/20 09:30:50;;;;;;;2.97;1.63;;;0.40;99.90;;;;;;8305044;28;20170;-80
2021/12/20 09:34:51;;;;;;;4.67;2.00;;;0.40;99.90;;;;;;8316369;28;20224;-80
2021/12/20 09:38:54;;;;;;;2.00;1.37;;;0.40;99.90;;;;;;8305944;28;20183;-80
2021/12/20 09:42:55;;;;;;;5.00;2.30;;;0.40;99.90;;;;;;8303088;28;20189;-80
2021/12/20 09:46:58;;;;;;;4.90;1.63;;;0.50;99.90;;;;;;8297665;28;20190;-79
2021/12/20 09:50:59;;;;;;;7.00;2.53;;;0.50;99.90;;;;;;8316722;28;20642;-80
2021/12/20 09:55:00;;;;;;;2.83;1.90;;;0.50;99.90;;;;;;8305202;28;20215;-80
2021/12/20 09:59:01;;;;;;;7.50;2.57;;;0.60;99.90;;;;;;8327245;28;20226;-78
2021/12/20 10:03:02;;;;;;;3.30;2.00;;;0.60;99.90;;;;;;8311109;28;20189;-79
2021/12/20 10:07:04;;;;;;;3.17;1.80;;;0.60;99.90;;;;;;8326879;28;20221;-80
2021/12/20 10:11:16;;;;;;;4.73;2.00;;;0.70;99.90;;;;;;8308607;28;20252;-80
2021/12/20 10:15:17;;;;;;;2.40;1.90;;;0.70;99.90;;;;;;8314914;28;20210;-81
2021/12/20 10:19:34;;;;;;;4.37;1.63;;;0.70;99.90;;;;;;8306235;28;20194;-76
2021/12/20 10:23:46;;;;;;;3.20;2.13;;;0.70;99.90;;;;;;8309204;28;20191;-80
2021/12/20 10:27:46;;;;;;;3.17;1.93;;;0.70;99.90;;;;;;8303976;28;20337;-81
2021/12/20 10:31:49;;;;;;;7.70;1.80;;;0.70;99.90;;;;;;8307534;28;20221;-81
2021/12/20 10:35:55;;;;;;;5.33;2.37;;;0.70;99.90;;;;;;8321944;28;20202;-81
2021/12/20 10:40:02;;;;;;;5.87;2.10;;;0.60;99.90;;;;;;8301946;28;20182;-80
2021/12/20 10:44:17;;;;;;;4.73;2.53;;;0.70;99.90;;;;;;8315506;28;20210;-79
2021/12/20 10:48:19;;;;;;;4.20;2.50;;;0.70;99.90;;;;;;8309737;28;20199;-79
2021/12/20 10:52:27;;;;;;;3.03;1.83;;;0.70;99.90;;;;;;8309409;28;20303;-79
2021/12/20 10:56:34;;;;;;;10.10;2.50;;;0.70;99.90;;;;;;8306492;28;20250;-78
2021/12/20 11:00:35;;;;;;;5.60;2.20;;;0.70;99.90;;;;;;8311765;28;20183;-77
2021/12/20 11:04:47;;;;;;;5.37;2.40;;;0.80;99.90;;;;;;8307516;28;20209;-81
2021/12/20 11:09:07;;;;;;;6.50;2.03;;;0.90;99.90;;;;;;8310327;28;20205;-79
2021/12/20 11:13:16;;;;;;;3.10;2.23;;;1.00;99.90;;;;;;8303106;28;20199;-80
2021/12/20 11:17:20;;;;;;;3.30;1.90;;;1.00;99.90;;;;;;8307832;28;20244;-80
2021/12/20 11:21:22;;;;;;;6.77;2.50;;;1.00;99.90;;;;;;8301110;28;20193;-78
2021/12/20 11:25:23;;;;;;;6.93;2.40;;;1.00;99.90;;;;;;8303178;28;20207;-78
2021/12/20 11:29:24;;;;;;;3.90;2.20;;;1.00;99.90;;;;;;8304843;28;20392;-78
2021/12/20 11:33:25;;;;;;;4.03;2.30;;;1.20;99.90;;;;;;8298977;28;20264;-76
2021/12/20 11:37:28;;;;;;;4.43;1.90;;;1.30;99.90;;;;;;8306782;28;20214;-79
2021/12/20 11:41:30;;;;;;;4.60;2.63;;;1.30;99.90;;;;;;8307107;28;20180;-79
2021/12/20 11:45:34;;;;;;;7.47;2.30;;;1.40;99.90;;;;;;8304575;28;20190;-80
2021/12/20 11:49:36;;;;;;;3.93;2.40;;;1.40;99.90;;;;;;8315626;28;20268;-80
2021/12/20 11:53:40;;;;;;;4.27;2.47;;;1.50;99.90;;;;;;8305322;28;20202;-82
2021/12/20 11:57:50;;;;;;;3.83;1.90;;;1.50;99.90;;;;;;8307359;28;20276;-79
2021/12/20 12:02:19;;;;;;;3.17;2.13;;;1.50;99.90;;;;;;8297849;28;20183;-84
2021/12/20 12:06:26;;;;;;;6.33;2.10;;;1.60;99.90;;;;;;8308873;28;20278;-82
2021/12/20 12:10:30;;;;;;;5.47;2.20;;;1.60;99.90;;;;;;8309204;28;20234;-82
2021/12/20 12:15:03;;;;;;;6.13;1.70;;;1.60;99.90;;;;;;8307488;28;20199;-81
2021/12/20 12:19:03;;;;;;;4.43;1.73;;;1.60;99.90;;;;;;8305628;28;20273;-77
2021/12/20 12:23:29;;;;;;;4.90;2.47;;;1.50;99.90;;;;;;8306521;28;20181;-83
2021/12/20 12:27:32;;;;;;;4.47;1.63;;;1.50;99.90;;;;;;8305488;28;20190;-85
2021/12/20 12:31:56;;;;;;;4.53;1.97;;;1.60;99.90;;;;;;8304254;28;20194;-80
2021/12/20 12:36:00;;;;;;;5.83;1.87;;;1.60;99.90;;;;;;8310018;28;20276;-81
2021/12/20 12:40:27;;;;;;;4.30;2.13;;;1.50;99.90;;;;;;8313793;28;20182;-83
2021/12/20 12:44:31;;;;;;;9.53;2.80;;;1.50;99.90;;;;;;8332115;28;20182;-80
2021/12/20 12:48:49;;;;;;;7.90;2.30;;;1.50;99.90;;;;;;8321689;28;20202;-83
2021/12/20 12:52:53;;;;;;;6.70;2.77;;;1.40;99.90;;;;;;8324508;28;20220;-87
2021/12/20 12:56:54;;;;;;;4.27;2.03;;;1.40;99.90;;;;;;8301508;28;20248;-79
2021/12/20 13:01:01;;;;;;;3.90;2.23;;;1.40;99.90;;;;;;8310239;28;20167;-83
2021/12/20 13:05:07;;;;;;;4.47;1.57;;;1.40;99.90;;;;;;8331147;28;20214;-83
2021/12/20 13:09:11;;;;;;;7.27;2.27;;;1.40;99.90;;;;;;8321401;28;20210;-83
2021/12/20 13:17:34;;;;;;;1.70;1.60;;;1.40;99.90;;;;;;8332192;28;20272;-85
2021/12/20 13:21:48;;;;;;;10.53;2.40;;;1.40;99.90;;;;;;8308138;28;20229;-83
2021/12/20 13:25:53;;;;;;;4.73;1.70;;;1.40;99.90;;;;;;8310609;28;20198;-80
2021/12/20 13:29:53;;;;;;;7.90;3.20;;;1.40;99.90;;;;;;8334405;28;20201;-83
2021/12/20 13:33:58;;;;;;;4.03;2.13;;;1.40;99.90;;;;;;8307071;28;20186;-82
2021/12/20 13:38:19;;;;;;;5.50;2.47;;;1.40;99.90;;;;;;8315405;28;20218;-79
2021/12/20 13:42:22;;;;;;;8.60;2.60;;;1.40;99.90;;;;;;8315763;28;20183;-83
2021/12/20 13:46:39;;;;;;;8.67;2.87;;;1.40;99.90;;;;;;8310454;28;20214;-86
2021/12/20 13:50:43;;;;;;;8.27;3.13;;;1.40;99.90;;;;;;8332389;28;20217;-86
2021/12/20 13:54:45;;;;;;;7.47;3.50;;;1.30;99.90;;;;;;8319695;28;20289;-83
2021/12/20 13:58:49;;;;;;;8.13;3.30;;;1.20;99.90;;;;;;8310748;28;20215;-83
2021/12/20 14:02:52;;;;;;;6.60;3.07;;;1.10;99.90;;;;;;8310012;28;20264;-76
2021/12/20 14:06:53;;;;;;;9.23;2.87;;;1.00;99.90;;;;;;8314581;28;20244;-78
2021/12/20 14:10:53;;;;;;;6.53;3.10;;;1.10;99.90;;;;;;8311025;28;20311;-83
2021/12/20 14:14:55;;;;;;;6.77;3.13;;;1.10;99.90;;;;;;8301486;28;20195;-83
2021/12/20 14:18:56;;;;;;;3.10;2.07;;;1.10;99.90;;;;;;8318449;28;20316;-83
2021/12/20 14:23:00;;;;;;;7.07;2.37;;;1.10;99.90;;;;;;8336803;28;20189;-83
2021/12/20 14:27:04;;;;;;;5.63;2.37;;;1.10;99.90;;;;;;8316795;28;20245;-80
2021/12/20 14:31:27;;;;;;;3.20;2.30;;;1.10;99.90;;;;;;8313722;28;20195;-82
2021/12/20 14:35:34;;;;;;;3.63;2.33;;;1.10;99.90;;;;;;8313107;28;20222;-83
2021/12/20 14:39:43;;;;;;;5.50;1.83;;;1.20;99.90;;;;;;8314897;28;20225;-86
2021/12/20 14:43:44;;;;;;;7.10;2.10;;;1.20;99.90;;;;;;8306827;28;20183;-84
2021/12/20 14:47:46;;;;;;;5.30;2.23;;;1.20;99.90;;;;;;8336310;28;20365;-82
2021/12/20 14:51:48;;;;;;;2.80;2.23;;;1.20;99.90;;;;;;8339207;28;20262;-84
2021/12/20 14:55:49;;;;;;;4.20;2.33;;;1.20;99.90;;;;;;8310084;28;20219;-79
2021/12/20 14:59:53;;;;;;;4.50;2.10;;;1.20;99.90;;;;;;8331453;28;20175;-82
2021/12/20 15:03:58;;;;;;;5.03;2.43;;;1.20;99.90;;;;;;8312148;28;20240;-78
2021/12/20 15:07:59;;;;;;;3.37;2.30;;;1.10;99.90;;;;;;8320131;28;20298;-82
2021/12/20 15:12:03;;;;;;;3.97;1.97;;;1.10;99.90;;;;;;8317196;28;20209;-83
2021/12/20 15:16:04;;;;;;;6.43;2.87;;;1.10;99.90;;;;;;8313238;28;20264;-82
2021/12/20 15:20:07;;;;;;;3.57;2.57;;;1.10;99.90;;;;;;8301723;28;20217;-83
2021/12/20 15:24:08;;;;;;;3.93;2.20;;;1.10;99.90;;;;;;8305612;28;20218;-83
2021/12/20 15:28:08;;;;;;;4.70;2.60;;;1.10;99.90;;;;;;8310416;28;20237;-82
2021/12/20 15:32:10;;;;;;;5.47;2.23;;;1.00;99.90;;;;;;8297985;28;20187;-85
2021/12/20 15:36:11;;;;;;;6.73;3.10;;;1.00;99.90;;;;;;8307078;28;20211;-85
2021/12/20 15:40:13;;;;;;;5.03;2.10;;;1.00;99.90;;;;;;8317824;28;20609;-84
2021/12/20 15:44:14;;;;;;;5.17;2.47;;;1.00;99.90;;;;;;8310211;28;20202;-85
2021/12/20 15:48:15;;;;;;;5.87;2.93;;;0.90;99.90;;;;;;8312132;28;20194;-84
2021/12/20 15:52:16;;;;;;;7.13;3.60;;;0.90;99.90;;;;;;8304116;28;20195;-85
2021/12/20 15:56:18;;;;;;;7.00;3.23;;;0.80;99.90;;;;;;8308848;28;20206;-83
2021/12/20 16:00:18;;;;;;;8.80;3.30;;;0.60;99.90;;;;;;8307145;28;20178;-82
2021/12/20 16:04:20;;;;;;;15.03;5.30;;;0.50;99.90;;;;;;8307677;28;20200;-81
2021/12/20 16:08:21;;;;;;;7.57;3.80;;;0.50;99.90;;;;;;8308215;28;20230;-82
2021/12/20 16:12:22;;;;;;;4.80;3.10;;;0.50;99.90;;;;;;8314743;28;20186;-83
2021/12/20 16:16:23;;;;;;;4.83;2.80;;;0.40;99.90;;;;;;8316028;28;20274;-85
2021/12/20 16:20:24;;;;;;;13.73;5.97;;;0.40;99.90;;;;;;8306857;28;20178;-85
2021/12/20 16:24:25;;;;;;;11.87;4.80;;;0.40;99.90;;;;;;8310659;28;20220;-85
2021/12/20 16:28:26;;;;;;;11.33;3.77;;;0.30;99.90;;;;;;8301889;28;20446;-83
2021/12/20 16:32:30;;;;;;;10.00;4.70;;;0.30;99.90;;;;;;8290048;28;20193;-82
2021/12/20 16:36:34;;;;;;;6.33;3.20;;;0.40;99.90;;;;;;8307598;28;20187;-83
2021/12/20 16:40:35;;;;;;;7.80;3.10;;;0.40;99.90;;;;;;8301459;28;20214;-81
2021/12/20 16:44:38;;;;;;;4.03;3.23;;;0.50;99.90;;;;;;8306899;28;20187;-81
2021/12/20 16:48:39;;;;;;;7.53;3.83;;;0.50;99.90;;;;;;8308639;28;20233;-83
2021/12/20 16:52:40;;;;;;;10.57;4.97;;;0.50;99.90;;;;;;8313583;28;20269;-81
2021/12/20 16:56:45;;;;;;;5.20;3.27;;;0.40;99.90;;;;;;8303291;28;20265;-83
2021/12/20 17:00:46;;;;;;;7.43;3.03;;;0.40;99.90;;;;;;8313763;28;20186;-82
2021/12/20 17:04:51;;;;;;;8.93;4.07;;;0.30;99.90;;;;;;8314993;28;20179;-83
2021/12/20 17:08:52;;;;;;;10.00;3.90;;;0.20;99.90;;;;;;8319544;28;20264;-84
2021/12/20 17:12:56;;;;;;;8.27;4.07;;;0.30;99.90;;;;;;8324209;28;20276;-82
2021/12/20 17:16:57;;;;;;;9.17;4.50;;;0.30;99.90;;;;;;8316280;28;20221;-83
2021/12/20 17:20:58;;;;;;;5.37;4.03;;;0.30;99.90;;;;;;8325431;28;20187;-84
2021/12/20 17:25:00;;;;;;;9.37;4.30;;;0.30;99.90;;;;;;8317233;28;20299;-85
2021/12/20 17:29:00;;;;;;;10.53;4.60;;;0.30;99.90;;;;;;8309193;28;20254;-83
2021/12/20 17:33:02;;;;;;;9.70;4.27;;;0.30;99.90;;;;;;8331099;28;20198;-82
2021/12/20 17:37:04;;;;;;;7.30;3.77;;;0.30;99.90;;;;;;8314107;28;20260;-83
2021/12/20 17:41:05;;;;;;;6.77;3.97;;;0.40;99.90;;;;;;8318175;28;20185;-85
2021/12/20 17:45:09;;;;;;;8.57;3.97;;;0.40;99.90;;;;;;8331133;28;20190;-82
2021/12/20 17:49:09;;;;;;;12.53;5.77;;;0.40;99.90;;;;;;8315757;28;20195;-85
2021/12/20 17:53:11;;;;;;;7.47;4.47;;;0.50;99.90;;;;;;8321416;28;20210;-83
2021/12/20 17:57:15;;;;;;;7.67;4.27;;;0.50;99.90;;;;;;8332677;28;20268;-83
2021/12/20 18:01:17;;;;;;;6.67;3.60;;;0.60;99.90;;;;;;8315648;28;20198;-83
2021/12/20 18:05:19;;;;;;;10.70;4.77;;;0.60;99.90;;;;;;8308636;28;20188;-85
2021/12/20 18:09:21;;;;;;;13.47;5.60;;;0.70;99.90;;;;;;8311022;28;20211;-81
2021/12/20 18:13:22;;;;;;;18.13;7.23;;;0.70;99.90;;;;;;8309012;28;20221;-81
2021/12/20 18:17:23;;;;;;;10.77;5.40;;;0.70;99.90;;;;;;8311740;28;20301;-84
2021/12/20 18:21:24;;;;;;;10.20;4.50;;;0.70;99.90;;;;;;8311836;28;20248;-82
2021/12/20 18:25:28;;;;;;;5.93;3.17;;;0.70;99.90;;;;;;8313088;28;20186;-84
2021/12/20 18:29:30;;;;;;;8.33;4.17;;;0.70;99.90;;;;;;8329941;28;20194;-84
2021/12/20 18:33:31;;;;;;;6.00;3.73;;;0.70;99.90;;;;;;8310503;28;20206;-83
2021/12/20 18:37:33;;;;;;;10.23;5.23;;;0.70;99.90;;;;;;8318464;28;20225;-83
2021/12/20 18:41:37;;;;;;;8.10;4.07;;;0.70;99.90;;;;;;8328670;28;20187;-83
2021/12/20 18:45:39;;;;;;;7.47;4.10;;;0.60;99.90;;;;;;8319741;28;20229;-83
2021/12/20 18:49:41;;;;;;;19.03;9.63;;;0.50;99.90;;;;;;8325650;28;20189;-85
2021/12/20 18:53:42;;;;;;;9.00;4.60;;;0.30;99.90;;;;;;8307195;28;20236;-85
2021/12/20 18:57:43;;;;;;;8.57;4.63;;;0.20;99.90;;;;;;8307061;28;20226;-84
2021/12/20 19:01:45;;;;;;;7.63;3.87;;;0.10;99.90;;;;;;8307744;28;20190;-84
2021/12/20 19:05:50;;;;;;;6.33;4.43;;;0.00;99.90;;;;;;8327317;28;20194;-82
2021/12/20 19:09:59;;;;;;;10.20;5.30;;;-0.10;99.90;;;;;;8308669;28;20204;-82
2021/12/20 19:14:04;;;;;;;12.60;5.60;;;-0.20;99.90;;;;;;8307079;28;20209;-84
2021/12/20 19:18:05;;;;;;;7.30;4.13;;;-0.30;99.90;;;;;;8308100;28;20215;-84
2021/12/20 19:22:06;;;;;;;10.73;4.53;;;-0.40;99.90;;;;;;8307964;28;20193;-84
2021/12/20 19:26:09;;;;;;;9.50;4.83;;;-0.40;99.90;;;;;;8307081;28;20203;-82
2021/12/20 19:30:11;;;;;;;5.20;4.00;;;-0.50;99.90;;;;;;8309121;28;20216;-84
2021/12/20 19:34:23;;;;;;;11.07;4.23;;;-0.60;99.90;;;;;;8313822;28;20216;-82
2021/12/20 19:38:25;;;;;;;12.80;4.87;;;-0.70;99.90;;;;;;8309925;28;20216;-82
2021/12/20 19:42:28;;;;;;;10.50;4.53;;;-0.70;99.90;;;;;;8300801;28;20243;-82
2021/12/20 19:46:29;;;;;;;9.53;5.33;;;-0.80;99.90;;;;;;8304294;28;20197;-85
2021/12/20 19:50:30;;;;;;;6.90;4.17;;;-0.90;99.90;;;;;;8310685;28;20187;-85
2021/12/20 19:54:35;;;;;;;11.37;5.80;;;-1.00;99.90;;;;;;8309463;28;20214;-83
2021/12/20 19:58:36;;;;;;;9.67;4.50;;;-1.00;99.90;;;;;;8315788;28;20220;-82
2021/12/20 20:02:37;;;;;;;8.57;5.30;;;-1.00;99.90;;;;;;8317084;28;20196;-85
2021/12/20 20:06:38;;;;;;;7.10;5.03;;;-0.90;99.90;;;;;;8307574;28;20189;-82
2021/12/20 20:10:39;;;;;;;8.60;5.47;;;-1.00;99.90;;;;;;8300662;28;20268;-85
2021/12/20 20:14:40;;;;;;;12.00;5.90;;;-1.00;99.90;;;;;;8304528;28;20290;-84
2021/12/20 20:18:43;;;;;;;9.40;5.37;;;-0.90;99.90;;;;;;8312320;28;20221;-84
2021/12/20 20:22:44;;;;;;;10.67;5.23;;;-0.90;99.90;;;;;;8307198;28;20201;-81
2021/12/20 20:26:46;;;;;;;12.90;6.17;;;-0.90;99.90;;;;;;8303663;28;20193;-84
2021/12/20 20:30:49;;;;;;;11.83;4.80;;;-0.80;99.90;;;;;;8305015;28;20291;-84
2021/12/20 20:34:50;;;;;;;9.47;5.57;;;-0.80;99.90;;;;;;8302196;28;20280;-82
2021/12/20 20:38:51;;;;;;;8.80;5.60;;;-0.70;99.90;;;;;;8313531;28;20215;-83
2021/12/20 20:42:52;;;;;;;7.57;4.90;;;-0.70;99.90;;;;;;8308640;28;20231;-84
2021/12/20 20:46:54;;;;;;;11.37;5.17;;;-0.70;99.90;;;;;;8310419;28;20184;-84
2021/12/20 20:50:56;;;;;;;8.93;5.00;;;-0.70;99.90;;;;;;8305001;28;20193;-84
2021/12/20 20:54:58;;;;;;;8.60;4.53;;;-0.70;99.90;;;;;;8308578;28;20217;-82
2021/12/20 20:59:01;;;;;;;6.60;3.73;;;-0.80;99.90;;;;;;8313243;28;20219;-86
2021/12/20 21:03:02;;;;;;;8.97;4.10;;;-0.80;99.90;;;;;;8302151;28;20184;-84
2021/12/20 21:07:05;;;;;;;16.53;6.67;;;-0.90;99.90;;;;;;8306355;28;20184;-81
2021/12/20 21:11:06;;;;;;;5.33;3.70;;;-1.00;99.90;;;;;;8306238;28;20227;-84
2021/12/20 21:15:07;;;;;;;9.23;4.27;;;-1.10;99.90;;;;;;8304844;28;20191;-83
2021/12/20 21:19:09;;;;;;;7.37;3.87;;;-1.10;99.90;;;;;;8310109;28;20228;-82
2021/12/20 21:23:11;;;;;;;6.73;4.07;;;-1.20;99.90;;;;;;8307467;28;20199;-83
2021/12/20 21:27:14;;;;;;;8.30;4.03;;;-1.30;99.90;;;;;;8324888;28;20197;-84
2021/12/20 21:31:15;;;;;;;7.37;4.17;;;-1.40;99.90;;;;;;8305618;28;20219;-81